Lochbuie, Colorado
Current Conditions -  °F | °C
As of 8:53 AM on Sunday 21 Dec 2014 (Local Time) from KDEN Reporting Station
Scattered Clouds Scattered Clouds  
Wind Chill: 38°   Ceiling: Unl
Heat Index: 44°   Visibility: 10mi
Dew Point: 20°   Wind: 12mph
Humidity: 38%   Direction: 200°SSW
Pressure: 29.66"   Gusts: NA
Location:  39.9805°N, 104.669°W
Report Text: KDEN 211553Z 20010KT 10SM FEW090 SCT180 07/M07 A2966 RMK AO2 SLP026 T00671067
Loading
Personal Weather Stations






























Interactive Weather Map New forecast layout! Learn more

10-Day Weather Forecast

Advertisements
Track Severe Weather on mobile